sensor_id;sensor_type;location;lat;lon;timestamp;temperature;humidity
78704;SHT31;68034;51.966;5.676;2024-01-30T00:00:03;11.2;70.0
78704;SHT31;68034;51.966;5.676;2024-01-30T00:02:32;11.2;70.0
78704;SHT31;68034;51.966;5.676;2024-01-30T00:05:01;11.2;69.9
78704;SHT31;68034;51.966;5.676;2024-01-30T00:07:30;11.2;70.0
78704;SHT31;68034;51.966;5.676;2024-01-30T00:09:59;11.1;70.0
78704;SHT31;68034;51.966;5.676;2024-01-30T00:12:27;11.1;69.9
78704;SHT31;68034;51.966;5.676;2024-01-30T00:14:58;11.1;70.0
78704;SHT31;68034;51.966;5.676;2024-01-30T00:17:26;11.1;70.2
78704;SHT31;68034;51.966;5.676;2024-01-30T00:19:55;11.0;70.2
78704;SHT31;68034;51.966;5.676;2024-01-30T00:22:24;11.0;70.4
78704;SHT31;68034;51.966;5.676;2024-01-30T00:24:52;11.0;70.3
78704;SHT31;68034;51.966;5.676;2024-01-30T00:27:21;11.0;70.5
78704;SHT31;68034;51.966;5.676;2024-01-30T00:29:50;10.9;70.3
78704;SHT31;68034;51.966;5.676;2024-01-30T00:32:18;10.9;70.4
78704;SHT31;68034;51.966;5.676;2024-01-30T00:34:47;10.9;70.7
78704;SHT31;68034;51.966;5.676;2024-01-30T00:37:16;10.9;70.7
78704;SHT31;68034;51.966;5.676;2024-01-30T00:39:45;10.9;70.6
78704;SHT31;68034;51.966;5.676;2024-01-30T00:42:14;10.8;70.8
78704;SHT31;68034;51.966;5.676;2024-01-30T00:44:43;10.8;70.6
78704;SHT31;68034;51.966;5.676;2024-01-30T00:47:11;10.8;70.5
78704;SHT31;68034;51.966;5.676;2024-01-30T00:49:40;10.8;70.6
78704;SHT31;68034;51.966;5.676;2024-01-30T00:52:09;10.8;71.0
78704;SHT31;68034;51.966;5.676;2024-01-30T00:54:38;10.8;70.7
78704;SHT31;68034;51.966;5.676;2024-01-30T00:57:07;10.7;70.9
78704;SHT31;68034;51.966;5.676;2024-01-30T00:59:35;10.7;70.9
78704;SHT31;68034;51.966;5.676;2024-01-30T01:02:04;10.7;70.8
78704;SHT31;68034;51.966;5.676;2024-01-30T01:04:33;10.7;70.7
78704;SHT31;68034;51.966;5.676;2024-01-30T01:07:02;10.7;70.9
78704;SHT31;68034;51.966;5.676;2024-01-30T01:09:30;10.7;70.9
78704;SHT31;68034;51.966;5.676;2024-01-30T01:11:59;10.6;70.9
78704;SHT31;68034;51.966;5.676;2024-01-30T01:14:28;10.6;70.9
78704;SHT31;68034;51.966;5.676;2024-01-30T01:16:56;10.6;71.1
78704;SHT31;68034;51.966;5.676;2024-01-30T01:19:25;10.6;71.0
78704;SHT31;68034;51.966;5.676;2024-01-30T01:21:54;10.6;70.8
78704;SHT31;68034;51.966;5.676;2024-01-30T01:24:23;10.6;70.9
78704;SHT31;68034;51.966;5.676;2024-01-30T01:26:52;10.6;71.3
78704;SHT31;68034;51.966;5.676;2024-01-30T01:29:22;10.5;71.0
78704;SHT31;68034;51.966;5.676;2024-01-30T01:31:55;10.5;71.0
78704;SHT31;68034;51.966;5.676;2024-01-30T01:34:24;10.5;71.1
78704;SHT31;68034;51.966;5.676;2024-01-30T01:36:55;10.5;71.0
78704;SHT31;68034;51.966;5.676;2024-01-30T01:39:24;10.5;71.1
78704;SHT31;68034;51.966;5.676;2024-01-30T01:41:54;10.5;71.2
78704;SHT31;68034;51.966;5.676;2024-01-30T01:44:26;10.4;71.0
78704;SHT31;68034;51.966;5.676;2024-01-30T01:46:57;10.4;71.0
78704;SHT31;68034;51.966;5.676;2024-01-30T01:49:27;10.4;70.9
78704;SHT31;68034;51.966;5.676;2024-01-30T01:51:58;10.4;70.9
78704;SHT31;68034;51.966;5.676;2024-01-30T01:54:28;10.4;70.8
78704;SHT31;68034;51.966;5.676;2024-01-30T01:56:58;10.4;70.7
78704;SHT31;68034;51.966;5.676;2024-01-30T01:59:27;10.4;70.7
78704;SHT31;68034;51.966;5.676;2024-01-30T02:01:56;10.4;70.9
78704;SHT31;68034;51.966;5.676;2024-01-30T02:04:25;10.3;70.8
78704;SHT31;68034;51.966;5.676;2024-01-30T02:06:54;10.3;70.7
78704;SHT31;68034;51.966;5.676;2024-01-30T02:09:23;10.3;70.6
78704;SHT31;68034;51.966;5.676;2024-01-30T02:11:52;10.3;70.4
78704;SHT31;68034;51.966;5.676;2024-01-30T02:14:20;10.3;70.6
78704;SHT31;68034;51.966;5.676;2024-01-30T02:16:49;10.3;70.5
78704;SHT31;68034;51.966;5.676;2024-01-30T02:19:18;10.3;70.6
78704;SHT31;68034;51.966;5.676;2024-01-30T02:21:46;10.3;70.5
78704;SHT31;68034;51.966;5.676;2024-01-30T02:24:15;10.2;70.5
78704;SHT31;68034;51.966;5.676;2024-01-30T02:26:44;10.2;70.7
78704;SHT31;68034;51.966;5.676;2024-01-30T02:29:13;10.2;70.8
78704;SHT31;68034;51.966;5.676;2024-01-30T02:31:41;10.2;70.9
78704;SHT31;68034;51.966;5.676;2024-01-30T02:34:13;10.2;70.8
78704;SHT31;68034;51.966;5.676;2024-01-30T02:36:44;10.2;71.0
78704;SHT31;68034;51.966;5.676;2024-01-30T02:39:13;10.1;71.1
78704;SHT31;68034;51.966;5.676;2024-01-30T02:41:41;10.2;71.0
78704;SHT31;68034;51.966;5.676;2024-01-30T02:44:10;10.2;71.0
78704;SHT31;68034;51.966;5.676;2024-01-30T02:46:39;10.2;70.7
78704;SHT31;68034;51.966;5.676;2024-01-30T02:49:07;10.2;70.6
78704;SHT31;68034;51.966;5.676;2024-01-30T02:51:36;10.2;70.7
78704;SHT31;68034;51.966;5.676;2024-01-30T02:54:05;10.2;70.8
78704;SHT31;68034;51.966;5.676;2024-01-30T02:56:34;10.3;70.5
78704;SHT31;68034;51.966;5.676;2024-01-30T02:59:02;10.3;70.4
78704;SHT31;68034;51.966;5.676;2024-01-30T03:01:31;10.3;70.4
78704;SHT31;68034;51.966;5.676;2024-01-30T03:04:00;10.3;70.3
78704;SHT31;68034;51.966;5.676;2024-01-30T03:06:29;10.3;70.4
78704;SHT31;68034;51.966;5.676;2024-01-30T03:08:58;10.4;70.5
78704;SHT31;68034;51.966;5.676;2024-01-30T03:11:27;10.6;70.1
78704;SHT31;68034;51.966;5.676;2024-01-30T03:13:55;10.7;69.6
78704;SHT31;68034;51.966;5.676;2024-01-30T03:16:24;10.8;69.2
78704;SHT31;68034;51.966;5.676;2024-01-30T03:18:54;10.9;68.7
78704;SHT31;68034;51.966;5.676;2024-01-30T03:21:23;11.0;68.2
78704;SHT31;68034;51.966;5.676;2024-01-30T03:23:51;11.1;67.3
78704;SHT31;68034;51.966;5.676;2024-01-30T03:26:20;11.1;67.0
78704;SHT31;68034;51.966;5.676;2024-01-30T03:28:49;11.0;67.1
78704;SHT31;68034;51.966;5.676;2024-01-30T03:31:20;10.9;67.0
78704;SHT31;68034;51.966;5.676;2024-01-30T03:33:48;10.9;67.3
78704;SHT31;68034;51.966;5.676;2024-01-30T03:36:17;10.8;67.6
78704;SHT31;68034;51.966;5.676;2024-01-30T03:38:48;10.7;67.7
78704;SHT31;68034;51.966;5.676;2024-01-30T03:41:16;10.7;68.1
78704;SHT31;68034;51.966;5.676;2024-01-30T03:43:46;10.6;68.1
78704;SHT31;68034;51.966;5.676;2024-01-30T03:46:17;10.6;68.6
78704;SHT31;68034;51.966;5.676;2024-01-30T03:48:46;10.5;68.6
78704;SHT31;68034;51.966;5.676;2024-01-30T03:51:15;10.5;68.7
78704;SHT31;68034;51.966;5.676;2024-01-30T03:53:44;10.4;69.1
78704;SHT31;68034;51.966;5.676;2024-01-30T03:56:15;10.4;69.6
78704;SHT31;68034;51.966;5.676;2024-01-30T03:58:46;10.4;69.6
78704;SHT31;68034;51.966;5.676;2024-01-30T04:01:15;10.3;69.7
78704;SHT31;68034;51.966;5.676;2024-01-30T04:03:43;10.3;69.7
78704;SHT31;68034;51.966;5.676;2024-01-30T04:06:12;10.3;69.8
78704;SHT31;68034;51.966;5.676;2024-01-30T04:08:45;10.3;69.8
78704;SHT31;68034;51.966;5.676;2024-01-30T04:11:13;10.3;70.0
78704;SHT31;68034;51.966;5.676;2024-01-30T04:13:42;10.3;69.9
78704;SHT31;68034;51.966;5.676;2024-01-30T04:16:21;10.2;70.2
78704;SHT31;68034;51.966;5.676;2024-01-30T04:18:51;10.2;70.0
78704;SHT31;68034;51.966;5.676;2024-01-30T04:21:20;10.2;70.1
78704;SHT31;68034;51.966;5.676;2024-01-30T04:23:51;10.2;70.1
78704;SHT31;68034;51.966;5.676;2024-01-30T04:26:20;10.2;70.2
78704;SHT31;68034;51.966;5.676;2024-01-30T04:28:48;10.2;70.0
78704;SHT31;68034;51.966;5.676;2024-01-30T04:31:17;10.2;70.2
78704;SHT31;68034;51.966;5.676;2024-01-30T04:33:46;10.2;70.4
78704;SHT31;68034;51.966;5.676;2024-01-30T04:36:15;10.2;70.3
78704;SHT31;68034;51.966;5.676;2024-01-30T04:38:43;10.2;70.2
78704;SHT31;68034;51.966;5.676;2024-01-30T04:41:14;10.2;70.6
78704;SHT31;68034;51.966;5.676;2024-01-30T04:43:43;10.2;70.4
78704;SHT31;68034;51.966;5.676;2024-01-30T04:46:11;10.2;70.4
78704;SHT31;68034;51.966;5.676;2024-01-30T04:48:40;10.2;70.4
78704;SHT31;68034;51.966;5.676;2024-01-30T04:51:09;10.2;70.4
78704;SHT31;68034;51.966;5.676;2024-01-30T04:53:37;10.2;70.4
78704;SHT31;68034;51.966;5.676;2024-01-30T04:56:07;10.2;70.7
78704;SHT31;68034;51.966;5.676;2024-01-30T04:58:36;10.2;70.6
78704;SHT31;68034;51.966;5.676;2024-01-30T05:01:05;10.2;70.6
78704;SHT31;68034;51.966;5.676;2024-01-30T05:03:35;10.2;70.7
78704;SHT31;68034;51.966;5.676;2024-01-30T05:06:06;10.2;70.9
78704;SHT31;68034;51.966;5.676;2024-01-30T05:08:34;10.2;70.6
78704;SHT31;68034;51.966;5.676;2024-01-30T05:11:05;10.2;70.8
78704;SHT31;68034;51.966;5.676;2024-01-30T05:13:33;10.2;70.7
78704;SHT31;68034;51.966;5.676;2024-01-30T05:16:03;10.2;71.1
78704;SHT31;68034;51.966;5.676;2024-01-30T05:18:32;10.2;71.1
78704;SHT31;68034;51.966;5.676;2024-01-30T05:21:02;10.2;71.0
78704;SHT31;68034;51.966;5.676;2024-01-30T05:23:31;10.2;71.0
78704;SHT31;68034;51.966;5.676;2024-01-30T05:26:00;10.3;70.8
78704;SHT31;68034;51.966;5.676;2024-01-30T05:28:29;10.3;70.8
78704;SHT31;68034;51.966;5.676;2024-01-30T05:30:58;10.3;71.3
78704;SHT31;68034;51.966;5.676;2024-01-30T05:33:27;10.3;71.7
78704;SHT31;68034;51.966;5.676;2024-01-30T05:35:55;10.3;71.2
78704;SHT31;68034;51.966;5.676;2024-01-30T05:38:24;10.3;71.2
78704;SHT31;68034;51.966;5.676;2024-01-30T05:40:53;10.3;71.3
78704;SHT31;68034;51.966;5.676;2024-01-30T05:43:21;10.3;71.1
78704;SHT31;68034;51.966;5.676;2024-01-30T05:45:51;10.3;71.2
78704;SHT31;68034;51.966;5.676;2024-01-30T05:48:20;10.3;71.2
78704;SHT31;68034;51.966;5.676;2024-01-30T05:50:48;10.3;71.2
78704;SHT31;68034;51.966;5.676;2024-01-30T05:53:17;10.3;71.2
78704;SHT31;68034;51.966;5.676;2024-01-30T05:55:45;10.3;71.1
78704;SHT31;68034;51.966;5.676;2024-01-30T05:58:14;10.3;71.0
78704;SHT31;68034;51.966;5.676;2024-01-30T06:00:43;10.3;71.1
78704;SHT31;68034;51.966;5.676;2024-01-30T06:03:12;10.3;70.9
78704;SHT31;68034;51.966;5.676;2024-01-30T06:05:42;10.3;71.0
78704;SHT31;68034;51.966;5.676;2024-01-30T06:08:13;10.3;71.2
78704;SHT31;68034;51.966;5.676;2024-01-30T06:10:42;10.3;71.2
78704;SHT31;68034;51.966;5.676;2024-01-30T06:13:11;10.3;71.4
78704;SHT31;68034;51.966;5.676;2024-01-30T06:15:40;10.3;71.5
78704;SHT31;68034;51.966;5.676;2024-01-30T06:18:08;10.3;71.6
78704;SHT31;68034;51.966;5.676;2024-01-30T06:20:37;10.3;71.9
78704;SHT31;68034;51.966;5.676;2024-01-30T06:23:06;10.3;71.7
78704;SHT31;68034;51.966;5.676;2024-01-30T06:25:35;10.3;71.9
78704;SHT31;68034;51.966;5.676;2024-01-30T06:28:03;10.4;72.0
78704;SHT31;68034;51.966;5.676;2024-01-30T06:30:32;10.4;71.9
78704;SHT31;68034;51.966;5.676;2024-01-30T06:33:01;10.4;72.2
78704;SHT31;68034;51.966;5.676;2024-01-30T06:35:30;10.4;72.2
78704;SHT31;68034;51.966;5.676;2024-01-30T06:37:59;10.4;72.2
78704;SHT31;68034;51.966;5.676;2024-01-30T06:40:28;10.4;72.3
78704;SHT31;68034;51.966;5.676;2024-01-30T06:42:56;10.4;72.2
78704;SHT31;68034;51.966;5.676;2024-01-30T06:45:25;10.4;72.2
78704;SHT31;68034;51.966;5.676;2024-01-30T06:47:54;10.3;72.4
78704;SHT31;68034;51.966;5.676;2024-01-30T06:50:22;10.3;72.5
78704;SHT31;68034;51.966;5.676;2024-01-30T06:52:51;10.3;72.4
78704;SHT31;68034;51.966;5.676;2024-01-30T06:55:20;10.4;72.6
78704;SHT31;68034;51.966;5.676;2024-01-30T06:57:48;10.4;72.5
78704;SHT31;68034;51.966;5.676;2024-01-30T07:00:18;10.4;72.4
78704;SHT31;68034;51.966;5.676;2024-01-30T07:02:48;10.4;72.5
78704;SHT31;68034;51.966;5.676;2024-01-30T07:05:16;10.4;72.4
78704;SHT31;68034;51.966;5.676;2024-01-30T07:07:48;10.4;72.5
78704;SHT31;68034;51.966;5.676;2024-01-30T07:10:17;10.4;72.4
78704;SHT31;68034;51.966;5.676;2024-01-30T07:12:46;10.4;72.4
78704;SHT31;68034;51.966;5.676;2024-01-30T07:15:15;10.5;72.4
78704;SHT31;68034;51.966;5.676;2024-01-30T07:17:46;10.5;72.3
78704;SHT31;68034;51.966;5.676;2024-01-30T07:20:15;10.5;72.3
78704;SHT31;68034;51.966;5.676;2024-01-30T07:22:46;10.6;72.3
78704;SHT31;68034;51.966;5.676;2024-01-30T07:25:15;10.6;72.3
78704;SHT31;68034;51.966;5.676;2024-01-30T07:27:45;10.6;72.3
78704;SHT31;68034;51.966;5.676;2024-01-30T07:30:16;10.6;72.2
78704;SHT31;68034;51.966;5.676;2024-01-30T07:32:46;10.7;72.2
78704;SHT31;68034;51.966;5.676;2024-01-30T07:35:15;10.7;72.1
78704;SHT31;68034;51.966;5.676;2024-01-30T07:37:44;10.7;71.9
78704;SHT31;68034;51.966;5.676;2024-01-30T07:40:12;10.7;71.7
78704;SHT31;68034;51.966;5.676;2024-01-30T07:42:42;10.7;71.9
78704;SHT31;68034;51.966;5.676;2024-01-30T07:45:13;10.7;72.2
78704;SHT31;68034;51.966;5.676;2024-01-30T07:47:46;10.8;72.2
78704;SHT31;68034;51.966;5.676;2024-01-30T07:50:20;10.8;72.4
78704;SHT31;68034;51.966;5.676;2024-01-30T07:52:48;10.8;72.4
78704;SHT31;68034;51.966;5.676;2024-01-30T07:55:21;10.8;72.4
78704;SHT31;68034;51.966;5.676;2024-01-30T07:57:52;10.8;72.6
78704;SHT31;68034;51.966;5.676;2024-01-30T08:00:21;10.9;72.4
78704;SHT31;68034;51.966;5.676;2024-01-30T08:02:50;10.9;72.5
78704;SHT31;68034;51.966;5.676;2024-01-30T08:05:21;10.9;72.4
78704;SHT31;68034;51.966;5.676;2024-01-30T08:07:51;10.9;72.8
78704;SHT31;68034;51.966;5.676;2024-01-30T08:10:22;11.1;72.7
78704;SHT31;68034;51.966;5.676;2024-01-30T08:12:54;11.2;72.8
78704;SHT31;68034;51.966;5.676;2024-01-30T08:15:24;11.3;72.6
78704;SHT31;68034;51.966;5.676;2024-01-30T08:17:53;11.5;71.9
78704;SHT31;68034;51.966;5.676;2024-01-30T08:20:27;11.7;71.4
78704;SHT31;68034;51.966;5.676;2024-01-30T08:23:07;11.8;70.9
78704;SHT31;68034;51.966;5.676;2024-01-30T08:25:40;12.0;70.2
78704;SHT31;68034;51.966;5.676;2024-01-30T08:28:09;12.1;69.6
78704;SHT31;68034;51.966;5.676;2024-01-30T08:30:39;12.1;69.5
78704;SHT31;68034;51.966;5.676;2024-01-30T08:33:08;12.2;69.5
78704;SHT31;68034;51.966;5.676;2024-01-30T08:35:36;12.2;69.5
78704;SHT31;68034;51.966;5.676;2024-01-30T08:38:08;12.3;69.4
78704;SHT31;68034;51.966;5.676;2024-01-30T08:40:39;12.3;69.2
78704;SHT31;68034;51.966;5.676;2024-01-30T08:43:07;12.3;68.9
78704;SHT31;68034;51.966;5.676;2024-01-30T08:45:37;12.3;69.1
78704;SHT31;68034;51.966;5.676;2024-01-30T08:48:06;12.2;69.2
78704;SHT31;68034;51.966;5.676;2024-01-30T08:50:35;12.2;69.5
78704;SHT31;68034;51.966;5.676;2024-01-30T08:53:04;12.1;69.9
78704;SHT31;68034;51.966;5.676;2024-01-30T08:55:33;12.1;70.4
78704;SHT31;68034;51.966;5.676;2024-01-30T08:58:03;12.1;70.5
78704;SHT31;68034;51.966;5.676;2024-01-30T09:00:32;12.0;70.7
78704;SHT31;68034;51.966;5.676;2024-01-30T09:03:01;12.0;71.0
78704;SHT31;68034;51.966;5.676;2024-01-30T09:05:30;11.9;71.4
78704;SHT31;68034;51.966;5.676;2024-01-30T09:07:58;11.9;71.7
78704;SHT31;68034;51.966;5.676;2024-01-30T09:10:27;11.8;71.9
78704;SHT31;68034;51.966;5.676;2024-01-30T09:12:56;11.8;72.3
78704;SHT31;68034;51.966;5.676;2024-01-30T09:15:25;11.8;72.7
78704;SHT31;68034;51.966;5.676;2024-01-30T09:17:53;11.8;72.9
78704;SHT31;68034;51.966;5.676;2024-01-30T09:20:22;11.8;73.0
78704;SHT31;68034;51.966;5.676;2024-01-30T09:22:51;11.8;73.1
78704;SHT31;68034;51.966;5.676;2024-01-30T09:25:19;11.8;73.4
78704;SHT31;68034;51.966;5.676;2024-01-30T09:27:48;11.8;73.3
78704;SHT31;68034;51.966;5.676;2024-01-30T09:30:17;11.8;73.2
78704;SHT31;68034;51.966;5.676;2024-01-30T09:32:46;11.8;73.4
78704;SHT31;68034;51.966;5.676;2024-01-30T09:35:15;11.8;73.7
78704;SHT31;68034;51.966;5.676;2024-01-30T09:37:43;11.8;73.9
78704;SHT31;68034;51.966;5.676;2024-01-30T09:40:13;11.8;74.0
78704;SHT31;68034;51.966;5.676;2024-01-30T09:42:47;11.8;74.1
78704;SHT31;68034;51.966;5.676;2024-01-30T09:45:18;11.8;74.4
78704;SHT31;68034;51.966;5.676;2024-01-30T09:47:47;11.8;74.3
78704;SHT31;68034;51.966;5.676;2024-01-30T09:50:16;11.9;74.4
78704;SHT31;68034;51.966;5.676;2024-01-30T09:56:05;11.9;74.5
78704;SHT31;68034;51.966;5.676;2024-01-30T09:58:34;11.9;74.6
78704;SHT31;68034;51.966;5.676;2024-01-30T10:01:03;12.0;74.3
78704;SHT31;68034;51.966;5.676;2024-01-30T10:03:32;12.0;74.2
78704;SHT31;68034;51.966;5.676;2024-01-30T10:06:03;12.0;74.3
78704;SHT31;68034;51.966;5.676;2024-01-30T10:08:35;12.0;74.0
78704;SHT31;68034;51.966;5.676;2024-01-30T10:11:04;12.1;74.1
78704;SHT31;68034;51.966;5.676;2024-01-30T10:13:33;12.1;74.0
78704;SHT31;68034;51.966;5.676;2024-01-30T10:16:02;12.1;74.3
78704;SHT31;68034;51.966;5.676;2024-01-30T10:18:33;12.1;74.3
78704;SHT31;68034;51.966;5.676;2024-01-30T10:21:02;12.1;74.3
78704;SHT31;68034;51.966;5.676;2024-01-30T10:23:31;12.2;74.2
78704;SHT31;68034;51.966;5.676;2024-01-30T10:25:59;12.2;74.0
78704;SHT31;68034;51.966;5.676;2024-01-30T10:28:29;12.2;74.1
78704;SHT31;68034;51.966;5.676;2024-01-30T10:31:01;12.2;74.0
78704;SHT31;68034;51.966;5.676;2024-01-30T10:33:31;12.2;73.9
78704;SHT31;68034;51.966;5.676;2024-01-30T10:36:01;12.3;74.0
78704;SHT31;68034;51.966;5.676;2024-01-30T10:38:32;12.3;73.7
78704;SHT31;68034;51.966;5.676;2024-01-30T10:41:01;12.3;73.6
78704;SHT31;68034;51.966;5.676;2024-01-30T10:43:35;12.4;73.3
78704;SHT31;68034;51.966;5.676;2024-01-30T10:46:11;12.4;73.0
78704;SHT31;68034;51.966;5.676;2024-01-30T10:48:43;12.4;73.2
78704;SHT31;68034;51.966;5.676;2024-01-30T10:51:14;12.5;73.0
78704;SHT31;68034;51.966;5.676;2024-01-30T10:53:44;12.5;72.8
78704;SHT31;68034;51.966;5.676;2024-01-30T10:56:16;12.5;72.9
78704;SHT31;68034;51.966;5.676;2024-01-30T10:58:45;12.5;73.3
78704;SHT31;68034;51.966;5.676;2024-01-30T11:01:14;12.6;73.3
78704;SHT31;68034;51.966;5.676;2024-01-30T11:03:44;12.6;73.1
78704;SHT31;68034;51.966;5.676;2024-01-30T11:06:14;12.7;73.3
78704;SHT31;68034;51.966;5.676;2024-01-30T11:08:45;12.7;73.6
78704;SHT31;68034;51.966;5.676;2024-01-30T11:11:16;12.8;73.1
78704;SHT31;68034;51.966;5.676;2024-01-30T11:13:45;12.8;72.9
78704;SHT31;68034;51.966;5.676;2024-01-30T11:16:14;12.8;72.7
78704;SHT31;68034;51.966;5.676;2024-01-30T11:18:43;12.9;72.7
78704;SHT31;68034;51.966;5.676;2024-01-30T11:21:16;12.9;72.5
78704;SHT31;68034;51.966;5.676;2024-01-30T11:23:45;12.9;72.3
78704;SHT31;68034;51.966;5.676;2024-01-30T11:26:14;12.9;72.4
78704;SHT31;68034;51.966;5.676;2024-01-30T11:28:54;12.9;72.2
78704;SHT31;68034;51.966;5.676;2024-01-30T11:31:25;13.0;72.6
78704;SHT31;68034;51.966;5.676;2024-01-30T11:33:56;13.0;72.6
78704;SHT31;68034;51.966;5.676;2024-01-30T11:36:26;13.0;72.3
78704;SHT31;68034;51.966;5.676;2024-01-30T11:38:56;13.0;72.0
78704;SHT31;68034;51.966;5.676;2024-01-30T11:41:25;13.1;72.1
78704;SHT31;68034;51.966;5.676;2024-01-30T11:43:54;13.1;71.3
78704;SHT31;68034;51.966;5.676;2024-01-30T11:46:25;13.1;70.9
78704;SHT31;68034;51.966;5.676;2024-01-30T11:48:54;13.2;71.2
78704;SHT31;68034;51.966;5.676;2024-01-30T11:51:23;13.2;70.6
78704;SHT31;68034;51.966;5.676;2024-01-30T11:53:54;13.3;69.9
78704;SHT31;68034;51.966;5.676;2024-01-30T11:56:23;13.3;69.3
78704;SHT31;68034;51.966;5.676;2024-01-30T11:58:53;13.4;69.0
78704;SHT31;68034;51.966;5.676;2024-01-30T12:01:24;13.4;68.7
78704;SHT31;68034;51.966;5.676;2024-01-30T12:03:55;13.4;68.6
78704;SHT31;68034;51.966;5.676;2024-01-30T12:06:24;13.5;68.3
78704;SHT31;68034;51.966;5.676;2024-01-30T12:09:01;13.5;68.2
78704;SHT31;68034;51.966;5.676;2024-01-30T12:11:30;13.5;68.2
78704;SHT31;68034;51.966;5.676;2024-01-30T12:14:00;13.5;67.6
78704;SHT31;68034;51.966;5.676;2024-01-30T12:16:29;13.6;66.6
78704;SHT31;68034;51.966;5.676;2024-01-30T12:19:01;13.6;66.4
78704;SHT31;68034;51.966;5.676;2024-01-30T12:21:30;13.5;65.8
78704;SHT31;68034;51.966;5.676;2024-01-30T12:23:59;13.5;65.4
78704;SHT31;68034;51.966;5.676;2024-01-30T12:26:29;13.5;65.6
78704;SHT31;68034;51.966;5.676;2024-01-30T12:28:58;13.4;65.6
78704;SHT31;68034;51.966;5.676;2024-01-30T12:31:28;13.4;65.3
78704;SHT31;68034;51.966;5.676;2024-01-30T12:33:59;13.4;65.0
78704;SHT31;68034;51.966;5.676;2024-01-30T12:36:28;13.3;65.2
78704;SHT31;68034;51.966;5.676;2024-01-30T12:38:58;13.3;65.8
78704;SHT31;68034;51.966;5.676;2024-01-30T12:41:27;13.3;64.9
78704;SHT31;68034;51.966;5.676;2024-01-30T12:43:57;13.3;64.8
78704;SHT31;68034;51.966;5.676;2024-01-30T12:46:27;13.3;64.7
78704;SHT31;68034;51.966;5.676;2024-01-30T12:48:57;13.3;65.4
78704;SHT31;68034;51.966;5.676;2024-01-30T12:51:26;13.2;64.9
78704;SHT31;68034;51.966;5.676;2024-01-30T12:53:55;13.2;65.0
78704;SHT31;68034;51.966;5.676;2024-01-30T12:56:24;13.2;64.3
78704;SHT31;68034;51.966;5.676;2024-01-30T12:58:53;13.2;64.6
78704;SHT31;68034;51.966;5.676;2024-01-30T13:01:22;13.3;64.6
78704;SHT31;68034;51.966;5.676;2024-01-30T13:03:53;13.3;64.5
78704;SHT31;68034;51.966;5.676;2024-01-30T13:06:23;13.3;64.5
78704;SHT31;68034;51.966;5.676;2024-01-30T13:08:52;13.3;64.6
78704;SHT31;68034;51.966;5.676;2024-01-30T13:11:21;13.3;64.6
78704;SHT31;68034;51.966;5.676;2024-01-30T13:13:52;13.3;64.6
78704;SHT31;68034;51.966;5.676;2024-01-30T13:16:20;13.3;64.0
78704;SHT31;68034;51.966;5.676;2024-01-30T13:18:50;13.4;63.6
78704;SHT31;68034;51.966;5.676;2024-01-30T13:21:22;13.5;63.7
78704;SHT31;68034;51.966;5.676;2024-01-30T13:23:52;13.6;63.2
78704;SHT31;68034;51.966;5.676;2024-01-30T13:26:21;13.7;63.2
78704;SHT31;68034;51.966;5.676;2024-01-30T13:29:03;13.8;62.9
78704;SHT31;68034;51.966;5.676;2024-01-30T13:31:33;13.8;62.1
78704;SHT31;68034;51.966;5.676;2024-01-30T13:34:02;13.8;62.0
78704;SHT31;68034;51.966;5.676;2024-01-30T13:36:30;13.7;61.7
78704;SHT31;68034;51.966;5.676;2024-01-30T13:38:59;13.6;61.3
78704;SHT31;68034;51.966;5.676;2024-01-30T13:41:28;13.4;62.0
78704;SHT31;68034;51.966;5.676;2024-01-30T13:43:57;13.3;62.1
78704;SHT31;68034;51.966;5.676;2024-01-30T13:46:26;13.2;62.3
78704;SHT31;68034;51.966;5.676;2024-01-30T13:48:54;13.1;62.8
78704;SHT31;68034;51.966;5.676;2024-01-30T13:51:23;12.9;63.1
78704;SHT31;68034;51.966;5.676;2024-01-30T13:53:53;12.9;63.2
78704;SHT31;68034;51.966;5.676;2024-01-30T13:56:22;12.8;64.0
78704;SHT31;68034;51.966;5.676;2024-01-30T13:58:52;12.7;64.3
78704;SHT31;68034;51.966;5.676;2024-01-30T14:01:22;12.6;64.7
78704;SHT31;68034;51.966;5.676;2024-01-30T14:03:51;12.6;64.6
78704;SHT31;68034;51.966;5.676;2024-01-30T14:06:20;12.6;64.4
78704;SHT31;68034;51.966;5.676;2024-01-30T14:08:49;12.5;64.5
78704;SHT31;68034;51.966;5.676;2024-01-30T14:11:17;12.5;64.8
78704;SHT31;68034;51.966;5.676;2024-01-30T14:13:46;12.5;65.4
78704;SHT31;68034;51.966;5.676;2024-01-30T14:16:15;12.4;65.5
78704;SHT31;68034;51.966;5.676;2024-01-30T14:18:43;12.4;65.9
78704;SHT31;68034;51.966;5.676;2024-01-30T14:21:12;12.5;65.8
78704;SHT31;68034;51.966;5.676;2024-01-30T14:23:41;12.5;65.9
78704;SHT31;68034;51.966;5.676;2024-01-30T14:26:10;12.5;65.7
78704;SHT31;68034;51.966;5.676;2024-01-30T14:28:38;12.5;66.1
78704;SHT31;68034;51.966;5.676;2024-01-30T14:31:08;12.5;65.1
78704;SHT31;68034;51.966;5.676;2024-01-30T14:33:37;12.5;65.2
78704;SHT31;68034;51.966;5.676;2024-01-30T14:36:08;12.5;64.7
78704;SHT31;68034;51.966;5.676;2024-01-30T14:38:37;12.5;64.8
78704;SHT31;68034;51.966;5.676;2024-01-30T14:41:06;12.5;65.3
78704;SHT31;68034;51.966;5.676;2024-01-30T14:43:35;12.4;65.8
78704;SHT31;68034;51.966;5.676;2024-01-30T14:46:04;12.4;65.9
78704;SHT31;68034;51.966;5.676;2024-01-30T14:48:33;12.4;66.4
78704;SHT31;68034;51.966;5.676;2024-01-30T14:51:02;12.3;67.0
78704;SHT31;68034;51.966;5.676;2024-01-30T14:53:31;12.3;67.0
78704;SHT31;68034;51.966;5.676;2024-01-30T14:56:00;12.3;67.1
78704;SHT31;68034;51.966;5.676;2024-01-30T14:58:29;12.2;67.9
78704;SHT31;68034;51.966;5.676;2024-01-30T15:00:58;12.2;67.6
78704;SHT31;68034;51.966;5.676;2024-01-30T15:03:29;12.2;67.1
78704;SHT31;68034;51.966;5.676;2024-01-30T15:05:57;12.1;67.3
78704;SHT31;68034;51.966;5.676;2024-01-30T15:08:26;12.1;67.3
78704;SHT31;68034;51.966;5.676;2024-01-30T15:10:55;12.1;67.1
78704;SHT31;68034;51.966;5.676;2024-01-30T15:13:24;12.1;67.6
78704;SHT31;68034;51.966;5.676;2024-01-30T15:15:53;12.0;67.5
78704;SHT31;68034;51.966;5.676;2024-01-30T15:18:22;12.0;67.4
78704;SHT31;68034;51.966;5.676;2024-01-30T15:20:50;12.0;67.9
78704;SHT31;68034;51.966;5.676;2024-01-30T15:23:19;12.0;67.9
78704;SHT31;68034;51.966;5.676;2024-01-30T15:25:48;11.9;67.9
78704;SHT31;68034;51.966;5.676;2024-01-30T15:28:17;11.9;68.1
78704;SHT31;68034;51.966;5.676;2024-01-30T15:30:59;11.9;68.1
78704;SHT31;68034;51.966;5.676;2024-01-30T15:33:28;11.9;68.8
78704;SHT31;68034;51.966;5.676;2024-01-30T15:35:57;11.9;69.8
78704;SHT31;68034;51.966;5.676;2024-01-30T15:38:26;11.9;69.9
78704;SHT31;68034;51.966;5.676;2024-01-30T15:40:56;11.8;70.4
78704;SHT31;68034;51.966;5.676;2024-01-30T15:43:25;11.8;70.7
78704;SHT31;68034;51.966;5.676;2024-01-30T15:45:53;11.7;71.8
78704;SHT31;68034;51.966;5.676;2024-01-30T15:48:22;11.7;72.2
78704;SHT31;68034;51.966;5.676;2024-01-30T15:50:52;11.6;72.5
78704;SHT31;68034;51.966;5.676;2024-01-30T15:53:22;11.6;72.4
78704;SHT31;68034;51.966;5.676;2024-01-30T15:55:52;11.6;72.6
78704;SHT31;68034;51.966;5.676;2024-01-30T15:58:23;11.5;72.8
78704;SHT31;68034;51.966;5.676;2024-01-30T16:00:52;11.5;72.6
78704;SHT31;68034;51.966;5.676;2024-01-30T16:03:21;11.5;72.9
78704;SHT31;68034;51.966;5.676;2024-01-30T16:05:50;11.4;73.0
78704;SHT31;68034;51.966;5.676;2024-01-30T16:08:18;11.4;72.9
78704;SHT31;68034;51.966;5.676;2024-01-30T16:10:49;11.4;72.9
78704;SHT31;68034;51.966;5.676;2024-01-30T16:13:18;11.4;73.0
78704;SHT31;68034;51.966;5.676;2024-01-30T16:15:46;11.4;72.9
78704;SHT31;68034;51.966;5.676;2024-01-30T16:18:15;11.4;72.9